sensor_id;sensor_type;location;lat;lon;timestamp;temperature;humidity
15906;DHT22;8051;50.820;4.884;2022-10-16T00:00:41;12.90;99.90
15906;DHT22;8051;50.820;4.884;2022-10-16T00:03:09;12.90;99.90
15906;DHT22;8051;50.820;4.884;2022-10-16T00:05:39;12.90;99.90
15906;DHT22;8051;50.820;4.884;2022-10-16T00:08:07;12.90;99.90
15906;DHT22;8051;50.820;4.884;2022-10-16T00:10:35;12.90;99.90
15906;DHT22;8051;50.820;4.884;2022-10-16T00:13:02;12.80;99.90
15906;DHT22;8051;50.820;4.884;2022-10-16T00:15:29;12.90;99.90
15906;DHT22;8051;50.820;4.884;2022-10-16T00:17:57;12.80;99.90
15906;DHT22;8051;50.820;4.884;2022-10-16T00:20:24;12.80;99.90
15906;DHT22;8051;50.820;4.884;2022-10-16T00:22:51;12.80;99.90
15906;DHT22;8051;50.820;4.884;2022-10-16T00:25:18;12.80;99.90
15906;DHT22;8051;50.820;4.884;2022-10-16T00:27:45;12.80;99.90
15906;DHT22;8051;50.820;4.884;2022-10-16T00:30:12;12.80;99.90
15906;DHT22;8051;50.820;4.884;2022-10-16T00:32:38;12.70;99.90
15906;DHT22;8051;50.820;4.884;2022-10-16T00:35:07;12.80;99.90
15906;DHT22;8051;50.820;4.884;2022-10-16T00:37:34;12.70;99.90
15906;DHT22;8051;50.820;4.884;2022-10-16T00:40:01;12.70;99.90
15906;DHT22;8051;50.820;4.884;2022-10-16T00:42:28;12.80;99.90
15906;DHT22;8051;50.820;4.884;2022-10-16T00:44:56;12.80;99.90
15906;DHT22;8051;50.820;4.884;2022-10-16T00:47:27;12.80;99.90
15906;DHT22;8051;50.820;4.884;2022-10-16T00:49:59;12.80;99.90
15906;DHT22;8051;50.820;4.884;2022-10-16T00:52:30;12.80;99.90
15906;DHT22;8051;50.820;4.884;2022-10-16T00:54:57;12.90;99.90
15906;DHT22;8051;50.820;4.884;2022-10-16T00:57:25;12.80;99.90
15906;DHT22;8051;50.820;4.884;2022-10-16T00:59:52;12.80;99.90
15906;DHT22;8051;50.820;4.884;2022-10-16T01:02:19;12.80;99.90
15906;DHT22;8051;50.820;4.884;2022-10-16T01:04:49;12.80;99.90
15906;DHT22;8051;50.820;4.884;2022-10-16T01:07:27;12.80;99.90
15906;DHT22;8051;50.820;4.884;2022-10-16T01:10:06;12.80;99.90
15906;DHT22;8051;50.820;4.884;2022-10-16T01:12:40;12.80;99.90
15906;DHT22;8051;50.820;4.884;2022-10-16T01:15:16;12.80;99.90
15906;DHT22;8051;50.820;4.884;2022-10-16T01:17:49;12.70;99.90
15906;DHT22;8051;50.820;4.884;2022-10-16T01:20:24;12.80;99.90
15906;DHT22;8051;50.820;4.884;2022-10-16T01:23:21;12.70;99.90
15906;DHT22;8051;50.820;4.884;2022-10-16T01:25:59;12.70;99.90
15906;DHT22;8051;50.820;4.884;2022-10-16T01:28:34;12.70;99.90
15906;DHT22;8051;50.820;4.884;2022-10-16T01:31:04;12.70;99.90
15906;DHT22;8051;50.820;4.884;2022-10-16T01:33:34;12.70;99.90
15906;DHT22;8051;50.820;4.884;2022-10-16T01:36:06;12.60;99.90
15906;DHT22;8051;50.820;4.884;2022-10-16T01:38:36;12.70;99.90
15906;DHT22;8051;50.820;4.884;2022-10-16T01:41:08;12.70;99.90
15906;DHT22;8051;50.820;4.884;2022-10-16T01:43:40;12.70;99.90
15906;DHT22;8051;50.820;4.884;2022-10-16T01:46:09;12.70;99.90
15906;DHT22;8051;50.820;4.884;2022-10-16T01:48:37;12.70;99.90
15906;DHT22;8051;50.820;4.884;2022-10-16T01:51:08;12.70;99.90
15906;DHT22;8051;50.820;4.884;2022-10-16T01:53:36;12.70;99.90
15906;DHT22;8051;50.820;4.884;2022-10-16T01:56:08;12.70;99.90
15906;DHT22;8051;50.820;4.884;2022-10-16T01:58:40;12.70;99.90
15906;DHT22;8051;50.820;4.884;2022-10-16T02:01:10;12.70;99.90
15906;DHT22;8051;50.820;4.884;2022-10-16T02:03:39;12.70;99.90
15906;DHT22;8051;50.820;4.884;2022-10-16T02:06:07;12.70;99.90
15906;DHT22;8051;50.820;4.884;2022-10-16T02:08:35;12.70;99.90
15906;DHT22;8051;50.820;4.884;2022-10-16T02:11:02;12.70;99.90
15906;DHT22;8051;50.820;4.884;2022-10-16T02:13:33;12.60;99.90
15906;DHT22;8051;50.820;4.884;2022-10-16T02:16:04;12.60;99.90
15906;DHT22;8051;50.820;4.884;2022-10-16T02:18:31;12.60;99.90
15906;DHT22;8051;50.820;4.884;2022-10-16T02:21:00;12.60;99.90
15906;DHT22;8051;50.820;4.884;2022-10-16T02:23:36;12.60;99.90
15906;DHT22;8051;50.820;4.884;2022-10-16T02:26:07;12.50;99.90
15906;DHT22;8051;50.820;4.884;2022-10-16T02:28:40;12.50;99.90
15906;DHT22;8051;50.820;4.884;2022-10-16T02:31:11;12.60;99.90
15906;DHT22;8051;50.820;4.884;2022-10-16T02:33:40;12.60;99.90
15906;DHT22;8051;50.820;4.884;2022-10-16T02:36:09;12.60;99.90
15906;DHT22;8051;50.820;4.884;2022-10-16T02:38:37;12.60;99.90
15906;DHT22;8051;50.820;4.884;2022-10-16T02:41:04;12.50;99.90
15906;DHT22;8051;50.820;4.884;2022-10-16T02:43:32;12.60;99.90
15906;DHT22;8051;50.820;4.884;2022-10-16T02:45:59;12.60;99.90
15906;DHT22;8051;50.820;4.884;2022-10-16T02:48:27;12.60;99.90
15906;DHT22;8051;50.820;4.884;2022-10-16T02:50:54;12.60;99.90
15906;DHT22;8051;50.820;4.884;2022-10-16T02:53:22;12.50;99.90
15906;DHT22;8051;50.820;4.884;2022-10-16T02:55:49;12.50;99.90
15906;DHT22;8051;50.820;4.884;2022-10-16T02:58:16;12.50;99.90
15906;DHT22;8051;50.820;4.884;2022-10-16T03:00:43;12.50;99.90
15906;DHT22;8051;50.820;4.884;2022-10-16T03:03:10;12.50;99.90
15906;DHT22;8051;50.820;4.884;2022-10-16T03:05:38;12.50;99.90
15906;DHT22;8051;50.820;4.884;2022-10-16T03:08:05;12.50;99.90
15906;DHT22;8051;50.820;4.884;2022-10-16T03:10:32;12.50;99.90
15906;DHT22;8051;50.820;4.884;2022-10-16T03:12:58;12.50;99.90
15906;DHT22;8051;50.820;4.884;2022-10-16T03:15:25;12.50;99.90
15906;DHT22;8051;50.820;4.884;2022-10-16T03:17:53;12.40;99.90
15906;DHT22;8051;50.820;4.884;2022-10-16T03:20:21;12.40;99.90
15906;DHT22;8051;50.820;4.884;2022-10-16T03:22:49;12.40;99.90
15906;DHT22;8051;50.820;4.884;2022-10-16T03:25:16;12.50;99.90
15906;DHT22;8051;50.820;4.884;2022-10-16T03:27:43;12.40;99.90
15906;DHT22;8051;50.820;4.884;2022-10-16T03:30:10;12.40;99.90
15906;DHT22;8051;50.820;4.884;2022-10-16T03:32:37;12.40;99.90
15906;DHT22;8051;50.820;4.884;2022-10-16T03:35:04;12.40;99.90
15906;DHT22;8051;50.820;4.884;2022-10-16T03:37:31;12.40;99.90
15906;DHT22;8051;50.820;4.884;2022-10-16T03:40:00;12.40;99.90
15906;DHT22;8051;50.820;4.884;2022-10-16T03:42:26;12.40;99.90
15906;DHT22;8051;50.820;4.884;2022-10-16T03:44:53;12.40;99.90
15906;DHT22;8051;50.820;4.884;2022-10-16T03:47:20;12.40;99.90
15906;DHT22;8051;50.820;4.884;2022-10-16T03:49:49;12.40;99.90
15906;DHT22;8051;50.820;4.884;2022-10-16T03:52:17;12.30;99.90
15906;DHT22;8051;50.820;4.884;2022-10-16T03:54:43;12.30;99.90
15906;DHT22;8051;50.820;4.884;2022-10-16T03:57:12;12.30;99.90
15906;DHT22;8051;50.820;4.884;2022-10-16T03:59:38;12.30;99.90
15906;DHT22;8051;50.820;4.884;2022-10-16T04:02:05;12.20;99.90
15906;DHT22;8051;50.820;4.884;2022-10-16T04:04:32;12.20;99.90
15906;DHT22;8051;50.820;4.884;2022-10-16T04:06:59;12.30;99.90
15906;DHT22;8051;50.820;4.884;2022-10-16T04:09:26;12.30;99.90
15906;DHT22;8051;50.820;4.884;2022-10-16T04:11:53;12.30;99.90
15906;DHT22;8051;50.820;4.884;2022-10-16T04:14:21;12.30;99.90
15906;DHT22;8051;50.820;4.884;2022-10-16T04:16:48;12.30;99.90
15906;DHT22;8051;50.820;4.884;2022-10-16T04:19:15;12.30;99.90
15906;DHT22;8051;50.820;4.884;2022-10-16T04:21:42;12.30;99.90
15906;DHT22;8051;50.820;4.884;2022-10-16T04:24:09;12.30;99.90
15906;DHT22;8051;50.820;4.884;2022-10-16T04:26:36;12.30;99.90
15906;DHT22;8051;50.820;4.884;2022-10-16T04:29:04;12.30;99.90
15906;DHT22;8051;50.820;4.884;2022-10-16T04:31:33;12.30;99.90
15906;DHT22;8051;50.820;4.884;2022-10-16T04:33:59;12.30;99.90
15906;DHT22;8051;50.820;4.884;2022-10-16T04:36:26;12.30;99.90
15906;DHT22;8051;50.820;4.884;2022-10-16T04:38:53;12.30;99.90
15906;DHT22;8051;50.820;4.884;2022-10-16T04:41:20;12.30;99.90
15906;DHT22;8051;50.820;4.884;2022-10-16T04:43:47;12.30;99.90
15906;DHT22;8051;50.820;4.884;2022-10-16T04:46:14;12.30;99.90
15906;DHT22;8051;50.820;4.884;2022-10-16T04:48:42;12.30;99.90
15906;DHT22;8051;50.820;4.884;2022-10-16T04:51:09;12.30;99.90
15906;DHT22;8051;50.820;4.884;2022-10-16T04:53:36;12.30;99.90
15906;DHT22;8051;50.820;4.884;2022-10-16T04:56:03;12.30;99.90
15906;DHT22;8051;50.820;4.884;2022-10-16T04:58:30;12.20;99.90
15906;DHT22;8051;50.820;4.884;2022-10-16T05:00:57;12.20;99.90
15906;DHT22;8051;50.820;4.884;2022-10-16T05:03:23;12.20;99.90
15906;DHT22;8051;50.820;4.884;2022-10-16T05:05:52;12.10;99.90
15906;DHT22;8051;50.820;4.884;2022-10-16T05:08:19;12.10;99.90
15906;DHT22;8051;50.820;4.884;2022-10-16T05:10:46;12.10;99.90
15906;DHT22;8051;50.820;4.884;2022-10-16T05:13:12;12.20;99.90
15906;DHT22;8051;50.820;4.884;2022-10-16T05:15:39;12.00;99.90
15906;DHT22;8051;50.820;4.884;2022-10-16T05:18:06;12.00;99.90
15906;DHT22;8051;50.820;4.884;2022-10-16T05:20:33;12.00;99.90
15906;DHT22;8051;50.820;4.884;2022-10-16T05:23:01;12.00;99.90
15906;DHT22;8051;50.820;4.884;2022-10-16T05:25:28;12.00;99.90
15906;DHT22;8051;50.820;4.884;2022-10-16T05:27:55;12.10;99.90
15906;DHT22;8051;50.820;4.884;2022-10-16T05:30:22;12.10;99.90
15906;DHT22;8051;50.820;4.884;2022-10-16T05:32:50;12.10;99.90
15906;DHT22;8051;50.820;4.884;2022-10-16T05:35:17;12.10;99.90
15906;DHT22;8051;50.820;4.884;2022-10-16T05:37:45;12.10;99.90
15906;DHT22;8051;50.820;4.884;2022-10-16T05:40:14;12.10;99.90
15906;DHT22;8051;50.820;4.884;2022-10-16T05:42:41;12.10;99.90
15906;DHT22;8051;50.820;4.884;2022-10-16T05:45:10;12.10;99.90
15906;DHT22;8051;50.820;4.884;2022-10-16T05:47:37;12.10;99.90
15906;DHT22;8051;50.820;4.884;2022-10-16T05:50:04;12.10;99.90
15906;DHT22;8051;50.820;4.884;2022-10-16T05:52:31;12.00;99.90
15906;DHT22;8051;50.820;4.884;2022-10-16T05:54:58;12.00;99.90
15906;DHT22;8051;50.820;4.884;2022-10-16T05:57:26;12.00;99.90
15906;DHT22;8051;50.820;4.884;2022-10-16T05:59:53;12.00;99.90
15906;DHT22;8051;50.820;4.884;2022-10-16T06:02:20;11.90;99.90
15906;DHT22;8051;50.820;4.884;2022-10-16T06:04:47;11.90;99.90
15906;DHT22;8051;50.820;4.884;2022-10-16T06:07:13;11.90;99.90
15906;DHT22;8051;50.820;4.884;2022-10-16T06:09:40;11.90;99.90
15906;DHT22;8051;50.820;4.884;2022-10-16T06:12:07;11.90;99.90
15906;DHT22;8051;50.820;4.884;2022-10-16T06:14:35;11.90;99.90
15906;DHT22;8051;50.820;4.884;2022-10-16T06:17:02;11.90;99.90
15906;DHT22;8051;50.820;4.884;2022-10-16T06:19:29;11.90;99.90
15906;DHT22;8051;50.820;4.884;2022-10-16T06:21:57;11.90;99.90
15906;DHT22;8051;50.820;4.884;2022-10-16T06:24:24;11.90;99.90
15906;DHT22;8051;50.820;4.884;2022-10-16T06:26:51;11.90;99.90
15906;DHT22;8051;50.820;4.884;2022-10-16T06:29:18;11.90;99.90
15906;DHT22;8051;50.820;4.884;2022-10-16T06:31:48;11.90;99.90
15906;DHT22;8051;50.820;4.884;2022-10-16T06:34:15;11.90;99.90
15906;DHT22;8051;50.820;4.884;2022-10-16T06:36:42;12.00;99.90
15906;DHT22;8051;50.820;4.884;2022-10-16T06:39:09;12.00;99.90
15906;DHT22;8051;50.820;4.884;2022-10-16T06:41:36;12.00;99.90
15906;DHT22;8051;50.820;4.884;2022-10-16T06:44:05;12.00;99.90
15906;DHT22;8051;50.820;4.884;2022-10-16T06:46:32;12.00;99.90
15906;DHT22;8051;50.820;4.884;2022-10-16T06:49:01;12.00;99.90
15906;DHT22;8051;50.820;4.884;2022-10-16T06:51:28;12.00;99.90
15906;DHT22;8051;50.820;4.884;2022-10-16T06:53:55;12.10;99.90
15906;DHT22;8051;50.820;4.884;2022-10-16T06:56:24;12.10;99.90
15906;DHT22;8051;50.820;4.884;2022-10-16T06:58:52;12.20;99.90
15906;DHT22;8051;50.820;4.884;2022-10-16T07:01:20;12.20;99.90
15906;DHT22;8051;50.820;4.884;2022-10-16T07:03:47;12.30;99.90
15906;DHT22;8051;50.820;4.884;2022-10-16T07:06:17;12.30;99.90
15906;DHT22;8051;50.820;4.884;2022-10-16T07:08:46;12.40;99.90
15906;DHT22;8051;50.820;4.884;2022-10-16T07:11:16;12.50;99.90
15906;DHT22;8051;50.820;4.884;2022-10-16T07:13:43;12.60;99.90
15906;DHT22;8051;50.820;4.884;2022-10-16T07:16:12;12.60;99.90
15906;DHT22;8051;50.820;4.884;2022-10-16T07:18:39;12.70;99.90
15906;DHT22;8051;50.820;4.884;2022-10-16T07:21:09;12.80;99.90
15906;DHT22;8051;50.820;4.884;2022-10-16T07:23:37;12.90;99.90
15906;DHT22;8051;50.820;4.884;2022-10-16T07:26:05;12.90;99.90
15906;DHT22;8051;50.820;4.884;2022-10-16T07:28:33;13.00;99.90
15906;DHT22;8051;50.820;4.884;2022-10-16T07:31:01;13.00;99.90
15906;DHT22;8051;50.820;4.884;2022-10-16T07:33:29;13.10;99.90
15906;DHT22;8051;50.820;4.884;2022-10-16T07:35:56;13.20;99.90
15906;DHT22;8051;50.820;4.884;2022-10-16T07:38:23;13.30;99.90
15906;DHT22;8051;50.820;4.884;2022-10-16T07:40:57;13.30;99.90
15906;DHT22;8051;50.820;4.884;2022-10-16T07:43:25;13.40;99.90
15906;DHT22;8051;50.820;4.884;2022-10-16T07:45:52;13.50;99.90
15906;DHT22;8051;50.820;4.884;2022-10-16T07:48:20;13.60;99.90
15906;DHT22;8051;50.820;4.884;2022-10-16T07:50:47;13.70;99.90
15906;DHT22;8051;50.820;4.884;2022-10-16T07:53:15;13.80;99.90
15906;DHT22;8051;50.820;4.884;2022-10-16T07:55:43;13.90;99.90
15906;DHT22;8051;50.820;4.884;2022-10-16T07:58:12;13.90;99.90
15906;DHT22;8051;50.820;4.884;2022-10-16T08:00:39;14.00;99.90
15906;DHT22;8051;50.820;4.884;2022-10-16T08:03:06;14.10;99.90
15906;DHT22;8051;50.820;4.884;2022-10-16T08:05:33;14.10;99.90
15906;DHT22;8051;50.820;4.884;2022-10-16T08:08:01;14.20;99.90
15906;DHT22;8051;50.820;4.884;2022-10-16T08:10:29;14.10;99.90
15906;DHT22;8051;50.820;4.884;2022-10-16T08:12:57;14.20;99.90
15906;DHT22;8051;50.820;4.884;2022-10-16T08:15:25;14.20;99.90
15906;DHT22;8051;50.820;4.884;2022-10-16T08:17:57;14.30;99.90
15906;DHT22;8051;50.820;4.884;2022-10-16T08:20:24;14.50;99.90
15906;DHT22;8051;50.820;4.884;2022-10-16T08:22:51;14.50;99.90
15906;DHT22;8051;50.820;4.884;2022-10-16T08:25:17;14.60;99.90
15906;DHT22;8051;50.820;4.884;2022-10-16T08:27:44;14.70;99.90
15906;DHT22;8051;50.820;4.884;2022-10-16T08:30:11;14.70;99.90
15906;DHT22;8051;50.820;4.884;2022-10-16T08:32:40;14.80;99.90
15906;DHT22;8051;50.820;4.884;2022-10-16T08:35:08;14.90;99.90
15906;DHT22;8051;50.820;4.884;2022-10-16T08:37:36;14.90;99.90
15906;DHT22;8051;50.820;4.884;2022-10-16T08:40:04;14.90;99.90
15906;DHT22;8051;50.820;4.884;2022-10-16T08:42:50;15.00;99.90
15906;DHT22;8051;50.820;4.884;2022-10-16T08:45:31;15.00;99.90
15906;DHT22;8051;50.820;4.884;2022-10-16T08:48:09;15.10;99.90
15906;DHT22;8051;50.820;4.884;2022-10-16T08:50:41;15.20;99.90
15906;DHT22;8051;50.820;4.884;2022-10-16T08:53:15;15.20;99.90
15906;DHT22;8051;50.820;4.884;2022-10-16T08:55:46;15.30;99.90
15906;DHT22;8051;50.820;4.884;2022-10-16T08:58:15;15.30;99.90
15906;DHT22;8051;50.820;4.884;2022-10-16T09:00:44;15.30;99.90
15906;DHT22;8051;50.820;4.884;2022-10-16T09:03:21;15.40;99.90
15906;DHT22;8051;50.820;4.884;2022-10-16T09:06:02;15.40;99.90
15906;DHT22;8051;50.820;4.884;2022-10-16T09:08:37;15.50;99.90
15906;DHT22;8051;50.820;4.884;2022-10-16T09:11:12;15.50;99.90
15906;DHT22;8051;50.820;4.884;2022-10-16T09:13:48;15.60;99.90
15906;DHT22;8051;50.820;4.884;2022-10-16T09:16:19;15.60;99.90
15906;DHT22;8051;50.820;4.884;2022-10-16T09:18:57;15.70;99.90
15906;DHT22;8051;50.820;4.884;2022-10-16T09:21:28;15.70;99.90
15906;DHT22;8051;50.820;4.884;2022-10-16T09:23:59;15.70;99.90
15906;DHT22;8051;50.820;4.884;2022-10-16T09:26:26;15.80;99.90
15906;DHT22;8051;50.820;4.884;2022-10-16T09:28:53;15.90;99.90
15906;DHT22;8051;50.820;4.884;2022-10-16T09:31:22;15.90;99.90
15906;DHT22;8051;50.820;4.884;2022-10-16T09:33:54;16.00;99.90
15906;DHT22;8051;50.820;4.884;2022-10-16T09:36:23;16.00;99.90
15906;DHT22;8051;50.820;4.884;2022-10-16T09:39:02;16.10;99.90
15906;DHT22;8051;50.820;4.884;2022-10-16T09:41:29;16.20;99.90
15906;DHT22;8051;50.820;4.884;2022-10-16T09:43:57;16.20;99.90
15906;DHT22;8051;50.820;4.884;2022-10-16T09:46:27;16.20;99.90
15906;DHT22;8051;50.820;4.884;2022-10-16T09:48:57;16.20;99.90
15906;DHT22;8051;50.820;4.884;2022-10-16T09:51:26;16.30;99.90
15906;DHT22;8051;50.820;4.884;2022-10-16T09:53:59;16.30;99.90
15906;DHT22;8051;50.820;4.884;2022-10-16T09:56:28;16.40;99.90
15906;DHT22;8051;50.820;4.884;2022-10-16T09:58:56;16.40;99.90
15906;DHT22;8051;50.820;4.884;2022-10-16T10:01:29;16.50;99.90
15906;DHT22;8051;50.820;4.884;2022-10-16T10:03:58;16.60;99.90
15906;DHT22;8051;50.820;4.884;2022-10-16T10:06:30;16.70;99.90
15906;DHT22;8051;50.820;4.884;2022-10-16T10:09:02;16.70;99.90
15906;DHT22;8051;50.820;4.884;2022-10-16T10:11:50;16.70;99.90
15906;DHT22;8051;50.820;4.884;2022-10-16T10:14:28;16.60;99.90
15906;DHT22;8051;50.820;4.884;2022-10-16T10:17:11;16.60;99.90
15906;DHT22;8051;50.820;4.884;2022-10-16T10:19:42;16.50;99.90
15906;DHT22;8051;50.820;4.884;2022-10-16T10:22:42;16.60;99.90
15906;DHT22;8051;50.820;4.884;2022-10-16T10:25:35;16.70;99.90
15906;DHT22;8051;50.820;4.884;2022-10-16T10:28:22;16.80;99.90
15906;DHT22;8051;50.820;4.884;2022-10-16T10:30:56;16.90;99.90
15906;DHT22;8051;50.820;4.884;2022-10-16T10:33:31;16.90;99.90
15906;DHT22;8051;50.820;4.884;2022-10-16T10:36:15;16.90;99.90
15906;DHT22;8051;50.820;4.884;2022-10-16T10:38:49;17.10;99.90
15906;DHT22;8051;50.820;4.884;2022-10-16T10:41:39;17.20;99.90
15906;DHT22;8051;50.820;4.884;2022-10-16T10:44:18;17.30;99.90
15906;DHT22;8051;50.820;4.884;2022-10-16T10:46:51;17.40;99.90
15906;DHT22;8051;50.820;4.884;2022-10-16T10:49:46;17.50;99.90
15906;DHT22;8051;50.820;4.884;2022-10-16T10:52:37;17.60;99.90
15906;DHT22;8051;50.820;4.884;2022-10-16T10:55:15;17.60;99.90
15906;DHT22;8051;50.820;4.884;2022-10-16T10:57:59;17.70;99.90
15906;DHT22;8051;50.820;4.884;2022-10-16T11:00:35;17.80;99.90
15906;DHT22;8051;50.820;4.884;2022-10-16T11:03:17;17.80;99.90
15906;DHT22;8051;50.820;4.884;2022-10-16T11:05:53;17.60;99.90
15906;DHT22;8051;50.820;4.884;2022-10-16T11:08:26;17.50;99.90
15906;DHT22;8051;50.820;4.884;2022-10-16T11:10:58;17.50;99.90
15906;DHT22;8051;50.820;4.884;2022-10-16T11:13:31;17.50;99.90
15906;DHT22;8051;50.820;4.884;2022-10-16T11:16:13;17.60;99.90
15906;DHT22;8051;50.820;4.884;2022-10-16T11:18:48;17.90;99.90
15906;DHT22;8051;50.820;4.884;2022-10-16T11:21:19;18.10;99.90
15906;DHT22;8051;50.820;4.884;2022-10-16T11:23:53;18.20;99.90
15906;DHT22;8051;50.820;4.884;2022-10-16T11:26:24;18.20;99.90
15906;DHT22;8051;50.820;4.884;2022-10-16T11:28:54;18.30;99.90
15906;DHT22;8051;50.820;4.884;2022-10-16T11:31:28;18.40;99.90
15906;DHT22;8051;50.820;4.884;2022-10-16T11:34:02;18.50;99.90
15906;DHT22;8051;50.820;4.884;2022-10-16T11:36:35;18.60;99.90
15906;DHT22;8051;50.820;4.884;2022-10-16T11:39:11;18.60;99.90
15906;DHT22;8051;50.820;4.884;2022-10-16T11:41:45;18.50;99.90
15906;DHT22;8051;50.820;4.884;2022-10-16T11:44:27;18.30;99.90
15906;DHT22;8051;50.820;4.884;2022-10-16T11:47:06;18.10;99.90
15906;DHT22;8051;50.820;4.884;2022-10-16T11:49:36;18.00;99.90
15906;DHT22;8051;50.820;4.884;2022-10-16T11:52:11;18.10;99.90
15906;DHT22;8051;50.820;4.884;2022-10-16T11:54:47;18.20;99.90
15906;DHT22;8051;50.820;4.884;2022-10-16T11:57:19;18.40;99.90
15906;DHT22;8051;50.820;4.884;2022-10-16T11:59:50;18.50;99.90
15906;DHT22;8051;50.820;4.884;2022-10-16T12:02:33;18.60;99.90
15906;DHT22;8051;50.820;4.884;2022-10-16T12:05:12;18.80;99.90
15906;DHT22;8051;50.820;4.884;2022-10-16T12:07:48;18.80;99.90
15906;DHT22;8051;50.820;4.884;2022-10-16T12:10:23;18.90;99.90
15906;DHT22;8051;50.820;4.884;2022-10-16T12:12:51;19.10;99.90
15906;DHT22;8051;50.820;4.884;2022-10-16T12:15:24;19.20;99.90
15906;DHT22;8051;50.820;4.884;2022-10-16T12:17:51;19.40;99.90
15906;DHT22;8051;50.820;4.884;2022-10-16T12:20:22;19.60;99.90
15906;DHT22;8051;50.820;4.884;2022-10-16T12:22:51;19.80;99.90
15906;DHT22;8051;50.820;4.884;2022-10-16T12:25:27;20.00;99.90
15906;DHT22;8051;50.820;4.884;2022-10-16T12:27:56;20.20;99.90
15906;DHT22;8051;50.820;4.884;2022-10-16T12:30:25;20.40;99.90
15906;DHT22;8051;50.820;4.884;2022-10-16T12:32:53;20.40;99.90
15906;DHT22;8051;50.820;4.884;2022-10-16T12:35:22;20.40;99.90
15906;DHT22;8051;50.820;4.884;2022-10-16T12:37:50;20.40;99.90
15906;DHT22;8051;50.820;4.884;2022-10-16T12:40:27;20.20;99.90
15906;DHT22;8051;50.820;4.884;2022-10-16T12:42:55;20.10;99.90
15906;DHT22;8051;50.820;4.884;2022-10-16T12:45:26;20.20;99.90
15906;DHT22;8051;50.820;4.884;2022-10-16T12:47:55;20.30;99.90
15906;DHT22;8051;50.820;4.884;2022-10-16T12:50:27;20.20;99.90
15906;DHT22;8051;50.820;4.884;2022-10-16T12:52:56;20.20;99.90
15906;DHT22;8051;50.820;4.884;2022-10-16T12:55:25;20.30;99.90
15906;DHT22;8051;50.820;4.884;2022-10-16T12:58:07;20.40;99.90
15906;DHT22;8051;50.820;4.884;2022-10-16T13:00:41;20.40;99.90
15906;DHT22;8051;50.820;4.884;2022-10-16T13:03:49;20.40;99.90
15906;DHT22;8051;50.820;4.884;2022-10-16T13:06:30;20.20;99.90
15906;DHT22;8051;50.820;4.884;2022-10-16T13:11:56;20.10;99.90
15906;DHT22;8051;50.820;4.884;2022-10-16T13:14:39;19.90;99.90
15906;DHT22;8051;50.820;4.884;2022-10-16T13:17:15;19.90;99.90
15906;DHT22;8051;50.820;4.884;2022-10-16T13:19:53;19.80;99.90
15906;DHT22;8051;50.820;4.884;2022-10-16T13:22:31;19.90;99.90
15906;DHT22;8051;50.820;4.884;2022-10-16T13:25:12;20.00;99.90
15906;DHT22;8051;50.820;4.884;2022-10-16T13:27:46;20.10;99.90
15906;DHT22;8051;50.820;4.884;2022-10-16T13:30:19;20.00;99.90
15906;DHT22;8051;50.820;4.884;2022-10-16T13:32:48;19.70;99.90
15906;DHT22;8051;50.820;4.884;2022-10-16T13:35:21;19.60;99.90
15906;DHT22;8051;50.820;4.884;2022-10-16T13:37:48;19.50;99.90
15906;DHT22;8051;50.820;4.884;2022-10-16T13:40:20;19.60;99.90
15906;DHT22;8051;50.820;4.884;2022-10-16T13:42:48;19.60;99.90
15906;DHT22;8051;50.820;4.884;2022-10-16T13:45:19;19.60;99.90
15906;DHT22;8051;50.820;4.884;2022-10-16T13:47:47;19.70;99.90
15906;DHT22;8051;50.820;4.884;2022-10-16T13:50:15;19.80;99.90
15906;DHT22;8051;50.820;4.884;2022-10-16T13:52:43;20.10;99.90
15906;DHT22;8051;50.820;4.884;2022-10-16T13:55:14;20.50;99.90
15906;DHT22;8051;50.820;4.884;2022-10-16T13:57:41;20.70;99.90
15906;DHT22;8051;50.820;4.884;2022-10-16T14:00:21;20.60;99.90
15906;DHT22;8051;50.820;4.884;2022-10-16T14:03:01;20.40;99.90
15906;DHT22;8051;50.820;4.884;2022-10-16T14:05:28;20.20;99.90
15906;DHT22;8051;50.820;4.884;2022-10-16T14:07:55;20.10;99.90
15906;DHT22;8051;50.820;4.884;2022-10-16T14:10:26;19.90;99.90
15906;DHT22;8051;50.820;4.884;2022-10-16T14:12:56;19.80;99.90
15906;DHT22;8051;50.820;4.884;2022-10-16T14:15:24;19.80;99.90
15906;DHT22;8051;50.820;4.884;2022-10-16T14:17:53;19.80;99.90
15906;DHT22;8051;50.820;4.884;2022-10-16T14:20:25;19.90;99.90
15906;DHT22;8051;50.820;4.884;2022-10-16T14:22:59;19.90;99.90
15906;DHT22;8051;50.820;4.884;2022-10-16T14:25:28;19.90;99.90
15906;DHT22;8051;50.820;4.884;2022-10-16T14:28:04;19.90;99.90
15906;DHT22;8051;50.820;4.884;2022-10-16T14:30:34;19.90;99.90
15906;DHT22;8051;50.820;4.884;2022-10-16T14:33:03;20.00;99.90
15906;DHT22;8051;50.820;4.884;2022-10-16T14:35:32;20.00;99.90
15906;DHT22;8051;50.820;4.884;2022-10-16T14:38:01;20.00;99.90
15906;DHT22;8051;50.820;4.884;2022-10-16T14:40:31;20.00;99.90
15906;DHT22;8051;50.820;4.884;2022-10-16T14:42:58;20.00;99.90
15906;DHT22;8051;50.820;4.884;2022-10-16T14:45:28;20.00;99.90
15906;DHT22;8051;50.820;4.884;2022-10-16T14:47:58;20.00;99.90
15906;DHT22;8051;50.820;4.884;2022-10-16T14:50:26;20.00;99.90
15906;DHT22;8051;50.820;4.884;2022-10-16T14:52:54;20.00;99.90
15906;DHT22;8051;50.820;4.884;2022-10-16T14:55:21;20.10;99.90
15906;DHT22;8051;50.820;4.884;2022-10-16T14:57:48;20.10;99.90
15906;DHT22;8051;50.820;4.884;2022-10-16T15:00:18;20.10;99.90
15906;DHT22;8051;50.820;4.884;2022-10-16T15:02:47;20.10;99.90
15906;DHT22;8051;50.820;4.884;2022-10-16T15:05:18;20.00;99.90
15906;DHT22;8051;50.820;4.884;2022-10-16T15:07:45;19.80;99.90
15906;DHT22;8051;50.820;4.884;2022-10-16T15:10:13;19.80;99.90
15906;DHT22;8051;50.820;4.884;2022-10-16T15:12:40;19.70;99.90
15906;DHT22;8051;50.820;4.884;2022-10-16T15:15:25;19.60;99.90
15906;DHT22;8051;50.820;4.884;2022-10-16T15:17:55;19.50;99.90
15906;DHT22;8051;50.820;4.884;2022-10-16T15:20:26;19.50;99.90
15906;DHT22;8051;50.820;4.884;2022-10-16T15:22:53;19.50;99.90
15906;DHT22;8051;50.820;4.884;2022-10-16T15:25:30;19.40;99.90
15906;DHT22;8051;50.820;4.884;2022-10-16T15:28:01;19.30;99.90
15906;DHT22;8051;50.820;4.884;2022-10-16T15:30:29;19.10;99.90
15906;DHT22;8051;50.820;4.884;2022-10-16T15:32:55;19.10;99.90
15906;DHT22;8051;50.820;4.884;2022-10-16T15:35:22;19.10;99.90
15906;DHT22;8051;50.820;4.884;2022-10-16T15:37:51;19.00;99.90
15906;DHT22;8051;50.820;4.884;2022-10-16T15:40:19;19.00;99.90
15906;DHT22;8051;50.820;4.884;2022-10-16T15:42:46;18.90;99.90
15906;DHT22;8051;50.820;4.884;2022-10-16T15:45:13;18.80;99.90
15906;DHT22;8051;50.820;4.884;2022-10-16T15:47:41;18.70;99.90
15906;DHT22;8051;50.820;4.884;2022-10-16T15:50:09;18.60;99.90
15906;DHT22;8051;50.820;4.884;2022-10-16T15:52:36;18.50;99.90
15906;DHT22;8051;50.820;4.884;2022-10-16T15:55:06;18.50;99.90
15906;DHT22;8051;50.820;4.884;2022-10-16T15:57:33;18.50;99.90
15906;DHT22;8051;50.820;4.884;2022-10-16T16:00:05;18.40;99.90
15906;DHT22;8051;50.820;4.884;2022-10-16T16:02:32;18.30;99.90
15906;DHT22;8051;50.820;4.884;2022-10-16T16:04:59;18.20;99.90
15906;DHT22;8051;50.820;4.884;2022-10-16T16:07:25;18.20;99.90